createdAt,value
2023-01-27T00:00:37.956Z,0.00
2023-01-27T00:01:38.604Z,0.00
2023-01-27T00:02:38.561Z,0.00
2023-01-27T00:03:37.853Z,0.00
2023-01-27T00:04:37.779Z,0.00
2023-01-27T00:05:37.756Z,0.00
2023-01-27T00:06:37.752Z,0.00
2023-01-27T00:07:37.778Z,0.00
2023-01-27T00:08:37.739Z,0.00
2023-01-27T00:09:37.733Z,0.00
2023-01-27T00:10:37.713Z,0.00
2023-01-27T00:11:37.692Z,0.00
2023-01-27T00:12:37.713Z,0.00
2023-01-27T00:13:37.693Z,0.00
2023-01-27T00:14:37.672Z,0.00
2023-01-27T00:15:37.748Z,0.00
2023-01-27T00:16:37.647Z,0.00
2023-01-27T00:17:37.641Z,0.00
2023-01-27T00:18:37.632Z,0.00
2023-01-27T00:19:37.612Z,0.00
2023-01-27T00:20:37.645Z,0.00
2023-01-27T00:21:37.599Z,0.00
2023-01-27T00:22:37.594Z,0.00
2023-01-27T00:23:37.567Z,0.00
2023-01-27T00:24:37.576Z,0.00
2023-01-27T00:25:37.548Z,0.00
2023-01-27T00:26:37.548Z,0.00
2023-01-27T00:27:37.552Z,0.00
2023-01-27T00:28:37.520Z,0.00
2023-01-27T00:29:37.513Z,0.00
2023-01-27T00:30:37.538Z,0.00
2023-01-27T00:31:37.531Z,0.00
2023-01-27T00:32:37.498Z,0.00
2023-01-27T00:33:37.455Z,0.00
2023-01-27T00:34:37.453Z,0.00
2023-01-27T00:35:37.448Z,0.00
2023-01-27T00:36:37.438Z,0.00
2023-01-27T00:37:37.429Z,0.00
2023-01-27T00:38:37.410Z,0.00
2023-01-27T00:39:37.404Z,0.00
2023-01-27T00:40:37.382Z,0.00
2023-01-27T00:41:37.380Z,0.00
2023-01-27T00:42:37.383Z,0.00
2023-01-27T00:43:37.349Z,0.00
2023-01-27T00:44:37.377Z,0.00
2023-01-27T00:45:37.320Z,0.00
2023-01-27T00:46:37.339Z,0.00
2023-01-27T00:47:37.330Z,0.00
2023-01-27T00:48:37.298Z,0.00
2023-01-27T00:49:37.322Z,0.00
2023-01-27T00:50:37.278Z,0.00
2023-01-27T00:51:37.280Z,0.00
2023-01-27T00:52:37.266Z,0.00
2023-01-27T00:53:37.253Z,0.00
2023-01-27T00:54:37.239Z,0.00
2023-01-27T00:55:37.222Z,0.00
2023-01-27T00:56:37.217Z,0.00
2023-01-27T00:57:37.231Z,0.00
2023-01-27T00:58:37.178Z,0.00
2023-01-27T00:59:37.202Z,0.00
2023-01-27T01:00:37.167Z,0.00
2023-01-27T01:01:37.228Z,0.00
2023-01-27T01:02:37.209Z,0.00
2023-01-27T01:03:37.175Z,0.00
2023-01-27T01:04:37.127Z,0.00
2023-01-27T01:05:37.110Z,0.00
2023-01-27T01:06:37.120Z,0.00
2023-01-27T01:07:37.089Z,0.00
2023-01-27T01:08:37.114Z,0.00
2023-01-27T01:09:37.071Z,0.00
2023-01-27T01:10:37.054Z,0.00
2023-01-27T01:11:37.059Z,0.00
2023-01-27T01:12:37.042Z,0.00
2023-01-27T01:13:37.050Z,0.00
2023-01-27T01:14:37.054Z,0.00
2023-01-27T01:15:36.997Z,0.00
2023-01-27T01:16:36.994Z,0.00
2023-01-27T01:17:36.989Z,0.00
2023-01-27T01:18:36.980Z,0.00
2023-01-27T01:19:36.972Z,0.00
2023-01-27T01:20:36.953Z,0.00
2023-01-27T01:21:36.934Z,0.00
2023-01-27T01:22:36.957Z,0.00
2023-01-27T01:23:36.945Z,0.00
2023-01-27T01:24:36.927Z,0.00
2023-01-27T01:25:36.898Z,0.00
2023-01-27T01:26:36.891Z,0.00
2023-01-27T01:27:36.882Z,0.00
2023-01-27T01:28:36.873Z,0.00
2023-01-27T01:29:36.849Z,0.00
2023-01-27T01:30:36.880Z,0.00
2023-01-27T01:31:36.886Z,0.00
2023-01-27T01:32:36.833Z,0.00
2023-01-27T01:33:36.920Z,0.00
2023-01-27T01:34:36.796Z,0.00
2023-01-27T01:35:36.795Z,0.00
2023-01-27T01:36:36.779Z,0.00
2023-01-27T01:37:36.763Z,0.00
2023-01-27T01:38:36.795Z,0.00
2023-01-27T01:39:36.746Z,0.00
2023-01-27T01:40:36.729Z,0.00
2023-01-27T01:41:36.724Z,0.00
2023-01-27T01:42:36.709Z,0.00
2023-01-27T01:43:36.722Z,0.00
2023-01-27T01:44:36.703Z,0.00
2023-01-27T01:45:36.700Z,0.00
2023-01-27T01:46:36.729Z,0.00
2023-01-27T01:47:36.666Z,0.00
2023-01-27T01:48:36.690Z,0.00
2023-01-27T01:49:36.649Z,0.00
2023-01-27T01:50:36.633Z,0.00
2023-01-27T01:51:36.614Z,0.00
2023-01-27T01:52:36.598Z,0.00
2023-01-27T01:53:36.623Z,0.00
2023-01-27T01:54:36.575Z,0.00
2023-01-27T01:55:36.566Z,0.00
2023-01-27T01:56:36.562Z,0.00
2023-01-27T01:57:36.549Z,0.00
2023-01-27T01:58:36.555Z,0.00
2023-01-27T01:59:36.538Z,0.00
2023-01-27T02:00:36.513Z,0.00
2023-01-27T02:01:36.508Z,0.00
2023-01-27T02:02:36.530Z,0.00
2023-01-27T02:03:36.503Z,0.00
2023-01-27T02:04:36.513Z,0.00
2023-01-27T02:05:36.479Z,0.00
2023-01-27T02:06:36.448Z,0.00
2023-01-27T02:07:36.479Z,0.00
2023-01-27T02:08:36.535Z,0.00
2023-01-27T02:09:36.414Z,0.00
2023-01-27T02:10:36.435Z,0.00
2023-01-27T02:11:36.401Z,0.00
2023-01-27T02:12:36.382Z,0.00
2023-01-27T02:13:36.430Z,0.00
2023-01-27T02:14:36.356Z,0.00
2023-01-27T02:15:36.385Z,0.00
2023-01-27T02:16:36.414Z,0.00
2023-01-27T02:17:36.350Z,0.00
2023-01-27T02:18:36.342Z,0.00
2023-01-27T02:19:36.320Z,0.00
2023-01-27T02:20:36.294Z,0.00
2023-01-27T02:21:36.311Z,0.00
2023-01-27T02:22:36.281Z,0.00
2023-01-27T02:23:36.313Z,0.00
2023-01-27T02:24:36.279Z,0.00
2023-01-27T02:25:36.238Z,0.00
2023-01-27T02:26:36.247Z,0.00
2023-01-27T02:27:36.226Z,0.00
2023-01-27T02:28:36.238Z,0.00
2023-01-27T02:29:36.202Z,0.00
2023-01-27T02:30:36.274Z,0.00
2023-01-27T02:31:36.347Z,0.00
2023-01-27T02:32:36.372Z,0.00
2023-01-27T02:33:36.191Z,0.00
2023-01-27T02:34:36.162Z,0.00
2023-01-27T02:35:36.142Z,0.00
2023-01-27T02:36:36.155Z,0.00
2023-01-27T02:37:36.111Z,0.00
2023-01-27T02:38:36.126Z,0.00
2023-01-27T02:39:36.135Z,0.00
2023-01-27T02:40:36.086Z,0.00
2023-01-27T02:41:36.070Z,0.00
2023-01-27T02:42:36.065Z,0.00
2023-01-27T02:43:36.070Z,0.00
2023-01-27T02:44:36.085Z,0.00
2023-01-27T02:45:36.031Z,0.00
2023-01-27T02:46:36.016Z,0.00
2023-01-27T02:47:36.012Z,0.00
2023-01-27T02:48:36.025Z,0.00
2023-01-27T02:49:35.993Z,0.00
2023-01-27T02:50:35.976Z,0.00
2023-01-27T02:51:35.998Z,0.00
2023-01-27T02:52:35.958Z,0.00
2023-01-27T02:53:35.969Z,0.00
2023-01-27T02:54:35.929Z,0.00
2023-01-27T02:55:35.924Z,0.00
2023-01-27T02:56:35.913Z,0.00
2023-01-27T02:57:35.907Z,0.00
2023-01-27T02:58:35.901Z,0.00
2023-01-27T02:59:35.875Z,0.00
2023-01-27T03:00:35.866Z,0.00
2023-01-27T03:01:35.952Z,0.00
2023-01-27T03:02:35.909Z,0.00
2023-01-27T03:03:35.852Z,0.00
2023-01-27T03:04:35.825Z,0.00
2023-01-27T03:05:35.825Z,0.00
2023-01-27T03:06:35.813Z,0.00
2023-01-27T03:07:35.782Z,0.00
2023-01-27T03:08:35.792Z,0.00
2023-01-27T03:09:35.783Z,0.00
2023-01-27T03:10:35.760Z,0.00
2023-01-27T03:11:35.737Z,0.00
2023-01-27T03:12:35.742Z,0.00
2023-01-27T03:13:35.733Z,0.00
2023-01-27T03:14:35.712Z,0.00
2023-01-27T03:15:35.791Z,0.00
2023-01-27T03:16:35.689Z,0.00
2023-01-27T03:17:35.687Z,0.00
2023-01-27T03:18:35.695Z,0.00
2023-01-27T03:19:35.654Z,0.00
2023-01-27T03:20:35.644Z,0.00
2023-01-27T03:21:35.656Z,0.00
2023-01-27T03:22:35.674Z,0.00
2023-01-27T03:23:35.652Z,0.00
2023-01-27T03:24:37.411Z,0.00
2023-01-27T03:25:35.595Z,0.00
2023-01-27T03:26:35.590Z,0.00
2023-01-27T03:27:35.572Z,0.00
2023-01-27T03:28:35.581Z,0.00
2023-01-27T03:29:35.549Z,0.00
2023-01-27T03:30:35.747Z,0.00
2023-01-27T03:31:35.632Z,0.00
2023-01-27T03:32:35.516Z,0.00
2023-01-27T03:33:35.535Z,0.00
2023-01-27T03:34:35.556Z,0.00
2023-01-27T03:35:35.513Z,0.00
2023-01-27T03:36:35.477Z,0.00
2023-01-27T03:37:35.524Z,0.00
2023-01-27T03:38:35.472Z,0.00
2023-01-27T03:39:35.458Z,0.00
2023-01-27T03:40:35.425Z,0.00
2023-01-27T03:41:35.420Z,0.00
2023-01-27T03:42:35.407Z,0.00
2023-01-27T03:43:35.424Z,0.00
2023-01-27T03:44:35.381Z,0.00
2023-01-27T03:45:35.388Z,0.00
2023-01-27T03:46:35.382Z,0.00
2023-01-27T03:47:36.305Z,0.00
2023-01-27T03:48:35.351Z,0.00
2023-01-27T03:49:35.410Z,0.00
2023-01-27T03:50:35.370Z,0.00
2023-01-27T03:51:35.319Z,0.00
2023-01-27T03:52:35.306Z,0.00
2023-01-27T03:53:35.320Z,0.00
2023-01-27T03:54:35.291Z,0.00
2023-01-27T03:55:41.838Z,0.00
2023-01-27T03:56:35.262Z,0.00
2023-01-27T03:57:35.235Z,0.00
2023-01-27T03:58:35.229Z,0.00
2023-01-27T03:59:35.347Z,0.00
2023-01-27T04:00:35.208Z,0.00
2023-01-27T04:01:35.240Z,0.00
2023-01-27T04:02:35.213Z,0.00
2023-01-27T04:03:35.171Z,0.00
2023-01-27T04:04:35.183Z,0.00
2023-01-27T04:05:35.158Z,0.00
2023-01-27T04:06:35.149Z,0.00
2023-01-27T04:07:35.131Z,0.00
2023-01-27T04:08:35.132Z,0.00
2023-01-27T04:09:35.164Z,0.00
2023-01-27T04:10:35.106Z,0.00
2023-01-27T04:11:35.088Z,0.00
2023-01-27T04:12:35.100Z,0.00
2023-01-27T04:13:35.079Z,0.00
2023-01-27T04:14:35.108Z,0.00
2023-01-27T04:15:35.079Z,0.00
2023-01-27T04:16:35.038Z,0.00
2023-01-27T04:17:35.020Z,0.00
2023-01-27T04:18:35.014Z,0.00
2023-01-27T04:19:35.020Z,0.00
2023-01-27T04:20:34.991Z,0.00
2023-01-27T04:21:34.987Z,0.00
2023-01-27T04:22:34.963Z,0.00
2023-01-27T04:23:34.967Z,0.00
2023-01-27T04:24:34.971Z,0.00
2023-01-27T04:25:34.939Z,0.00
2023-01-27T04:26:34.941Z,0.00
2023-01-27T04:27:34.915Z,0.00
2023-01-27T04:28:44.349Z,0.00
2023-01-27T04:29:34.970Z,0.00
2023-01-27T04:30:34.904Z,0.00
2023-01-27T04:31:34.901Z,0.00
2023-01-27T04:32:34.858Z,0.00
2023-01-27T04:33:34.849Z,0.00
2023-01-27T04:34:34.862Z,0.00
2023-01-27T04:35:38.835Z,0.00
2023-01-27T04:36:34.821Z,0.00
2023-01-27T04:37:34.814Z,0.00
2023-01-27T04:38:34.799Z,0.00
2023-01-27T04:39:34.810Z,0.00
2023-01-27T04:40:34.790Z,0.00
2023-01-27T04:41:34.759Z,0.00
2023-01-27T04:42:34.752Z,0.00
2023-01-27T04:43:34.743Z,0.00
2023-01-27T04:44:34.749Z,0.00
2023-01-27T04:45:34.741Z,0.00
2023-01-27T04:46:34.713Z,0.00
2023-01-27T04:47:34.699Z,0.00
2023-01-27T04:48:34.695Z,0.00
2023-01-27T04:49:34.717Z,0.00
2023-01-27T04:50:34.685Z,0.00
2023-01-27T04:51:34.660Z,0.00
2023-01-27T04:52:34.644Z,0.00
2023-01-27T04:53:34.639Z,0.00
2023-01-27T04:54:34.636Z,0.00
2023-01-27T04:55:34.609Z,0.00
2023-01-27T04:56:34.608Z,0.00
2023-01-27T04:57:34.592Z,0.00
2023-01-27T04:58:34.587Z,0.00
2023-01-27T04:59:34.588Z,0.00
2023-01-27T05:00:34.566Z,0.00
2023-01-27T05:01:34.582Z,0.00
2023-01-27T05:02:34.566Z,0.00
2023-01-27T05:03:34.527Z,0.00
2023-01-27T05:04:34.533Z,0.00
2023-01-27T05:05:34.506Z,0.00
2023-01-27T05:06:34.489Z,0.00
2023-01-27T05:07:34.488Z,0.00
2023-01-27T05:08:34.488Z,0.00
2023-01-27T05:09:34.495Z,0.00
2023-01-27T05:10:34.479Z,0.00
2023-01-27T05:11:34.438Z,0.00
2023-01-27T05:12:34.425Z,0.00
2023-01-27T05:13:34.417Z,0.00
2023-01-27T05:14:34.422Z,0.00
2023-01-27T05:15:34.466Z,0.00
2023-01-27T05:16:34.410Z,0.00
2023-01-27T05:17:34.377Z,0.00
2023-01-27T05:18:34.370Z,0.00
2023-01-27T05:19:34.375Z,0.00
2023-01-27T05:20:34.339Z,0.00
2023-01-27T05:21:34.338Z,0.00
2023-01-27T05:22:34.318Z,0.00
2023-01-27T05:23:34.306Z,0.00
2023-01-27T05:24:34.331Z,0.00
2023-01-27T05:25:34.291Z,0.00
2023-01-27T05:26:34.281Z,0.00
2023-01-27T05:27:34.281Z,0.00
2023-01-27T05:28:34.272Z,0.00
2023-01-27T05:29:34.271Z,0.00
2023-01-27T05:30:34.347Z,0.00
2023-01-27T05:31:34.361Z,0.00
2023-01-27T05:32:34.214Z,0.00
2023-01-27T05:33:34.203Z,0.00
2023-01-27T05:34:34.212Z,0.00
2023-01-27T05:35:34.192Z,0.00
2023-01-27T05:36:34.173Z,0.00
2023-01-27T05:37:34.183Z,0.00
2023-01-27T05:38:34.148Z,0.00
2023-01-27T05:39:34.181Z,0.00
2023-01-27T05:40:34.129Z,0.00
2023-01-27T05:41:34.110Z,0.00
2023-01-27T05:42:34.106Z,0.00
2023-01-27T05:43:34.104Z,0.00
2023-01-27T05:44:34.096Z,0.00
2023-01-27T05:45:34.106Z,0.00
2023-01-27T05:46:34.105Z,0.00
2023-01-27T05:47:34.046Z,0.00
2023-01-27T05:48:34.047Z,0.00
2023-01-27T05:49:34.042Z,0.00
2023-01-27T05:50:34.027Z,0.00
2023-01-27T05:51:34.011Z,0.00
2023-01-27T05:52:33.991Z,0.00
2023-01-27T05:53:34.002Z,0.00
2023-01-27T05:54:33.986Z,0.00
2023-01-27T05:55:33.969Z,0.00
2023-01-27T05:56:33.971Z,0.00
2023-01-27T05:57:33.934Z,0.00
2023-01-27T05:58:33.944Z,0.00
2023-01-27T05:59:33.935Z,0.00
2023-01-27T06:00:34.992Z,0.00
2023-01-27T06:01:33.971Z,0.00
2023-01-27T06:02:33.939Z,0.00
2023-01-27T06:03:33.875Z,0.00
2023-01-27T06:04:33.887Z,0.00
2023-01-27T06:05:33.853Z,0.00
2023-01-27T06:06:33.838Z,0.00
2023-01-27T06:07:33.837Z,0.00
2023-01-27T06:08:33.815Z,0.00
2023-01-27T06:09:33.827Z,0.00
2023-01-27T06:10:33.799Z,0.00
2023-01-27T06:11:33.805Z,0.00
2023-01-27T06:12:33.782Z,0.00
2023-01-27T06:13:33.764Z,0.00
2023-01-27T06:14:33.790Z,0.00
2023-01-27T06:15:33.747Z,0.00
2023-01-27T06:16:33.773Z,0.00
2023-01-27T06:17:33.716Z,0.00
2023-01-27T06:18:33.724Z,0.00
2023-01-27T06:19:33.732Z,0.00
2023-01-27T06:20:33.693Z,0.00
2023-01-27T06:21:34.063Z,0.00
2023-01-27T06:22:33.684Z,0.00
2023-01-27T06:23:33.664Z,0.00
2023-01-27T06:24:33.757Z,0.00
2023-01-27T06:25:33.634Z,0.00
2023-01-27T06:26:33.621Z,0.00
2023-01-27T06:27:33.617Z,0.00
2023-01-27T06:28:33.647Z,0.00
2023-01-27T06:29:33.621Z,0.00
2023-01-27T06:30:33.596Z,0.00
2023-01-27T06:31:33.604Z,0.00
2023-01-27T06:32:33.564Z,0.00
2023-01-27T06:33:33.548Z,0.00
2023-01-27T06:34:33.554Z,0.00
2023-01-27T06:35:33.526Z,0.00
2023-01-27T06:36:33.517Z,0.00
2023-01-27T06:37:33.518Z,0.00
2023-01-27T06:38:33.604Z,0.00
2023-01-27T06:39:33.486Z,0.00
2023-01-27T06:40:33.495Z,0.00
2023-01-27T06:41:33.467Z,0.00
2023-01-27T06:42:33.450Z,0.00
2023-01-27T06:43:33.459Z,0.00
2023-01-27T06:44:33.428Z,4.00
2023-01-27T06:45:33.436Z,4.00
2023-01-27T06:46:33.493Z,0.00
2023-01-27T06:47:33.397Z,0.00
2023-01-27T06:48:33.400Z,4.00
2023-01-27T06:49:33.392Z,4.00
2023-01-27T06:50:33.382Z,4.00
2023-01-27T06:51:33.355Z,0.00
2023-01-27T06:52:33.335Z,4.00
2023-01-27T06:53:33.332Z,4.00
2023-01-27T06:54:33.321Z,4.00
2023-01-27T06:55:33.337Z,4.00
2023-01-27T06:56:33.310Z,4.00
2023-01-27T06:57:33.279Z,4.00
2023-01-27T06:58:33.271Z,8.00
2023-01-27T06:59:33.265Z,8.00
2023-01-27T07:00:33.274Z,12.00
2023-01-27T07:01:33.257Z,16.00
2023-01-27T07:02:33.332Z,20.00
2023-01-27T07:03:38.172Z,20.00
2023-01-27T07:04:33.204Z,24.00
2023-01-27T07:05:33.231Z,24.00
2023-01-27T07:06:33.192Z,32.00
2023-01-27T07:07:33.180Z,40.00
2023-01-27T07:08:33.179Z,44.00
2023-01-27T07:09:42.878Z,44.00
2023-01-27T07:10:33.186Z,52.00
2023-01-27T07:11:33.129Z,52.00
2023-01-27T07:12:33.129Z,60.00
2023-01-27T07:13:33.120Z,68.00
2023-01-27T07:14:33.105Z,68.00
2023-01-27T07:15:33.150Z,76.00
2023-01-27T07:16:33.213Z,84.00
2023-01-27T07:17:33.081Z,96.00
2023-01-27T07:18:33.071Z,112.00
2023-01-27T07:19:35.084Z,116.00
2023-01-27T07:20:33.080Z,124.00
2023-01-27T07:21:33.031Z,132.00
2023-01-27T07:22:33.024Z,156.00
2023-01-27T07:23:33.007Z,164.00
2023-01-27T07:24:33.003Z,152.00
2023-01-27T07:25:33.003Z,156.00
2023-01-27T07:26:32.969Z,152.00
2023-01-27T07:27:32.987Z,196.00
2023-01-27T07:28:32.938Z,212.00
2023-01-27T07:29:32.941Z,200.00
2023-01-27T07:30:32.988Z,212.00
2023-01-27T07:31:32.994Z,216.00
2023-01-27T07:32:32.908Z,208.00
2023-01-27T07:33:32.909Z,208.00
2023-01-27T07:34:32.881Z,284.00
2023-01-27T07:35:32.897Z,264.00
2023-01-27T07:36:32.860Z,304.00
2023-01-27T07:37:33.832Z,320.00
2023-01-27T07:38:32.842Z,356.00
2023-01-27T07:39:32.828Z,340.00
2023-01-27T07:40:32.838Z,360.00
2023-01-27T07:41:32.811Z,348.00
2023-01-27T07:42:32.805Z,344.00
2023-01-27T07:43:32.788Z,352.00
2023-01-27T07:44:32.789Z,376.00
2023-01-27T07:45:32.837Z,416.00
2023-01-27T07:46:32.758Z,440.00
2023-01-27T07:47:32.744Z,468.00
2023-01-27T07:48:32.729Z,440.00
2023-01-27T07:49:32.723Z,444.00
2023-01-27T07:50:32.769Z,436.00
2023-01-27T07:51:32.710Z,524.00
2023-01-27T07:52:32.695Z,500.00
2023-01-27T07:53:32.673Z,396.00
2023-01-27T07:54:32.673Z,492.00
2023-01-27T07:55:32.684Z,500.00
2023-01-27T07:56:32.659Z,512.00
2023-01-27T07:57:32.635Z,488.00
2023-01-27T07:58:32.632Z,504.00
2023-01-27T07:59:32.613Z,504.00
2023-01-27T08:00:32.626Z,524.00
2023-01-27T08:01:32.606Z,484.00
2023-01-27T08:02:32.589Z,552.00
2023-01-27T08:03:32.638Z,576.00
2023-01-27T08:04:43.412Z,536.00
2023-01-27T08:05:32.581Z,600.00
2023-01-27T08:06:32.536Z,656.00
2023-01-27T08:07:32.529Z,708.00
2023-01-27T08:08:32.521Z,756.00
2023-01-27T08:09:32.512Z,760.00
2023-01-27T08:10:32.520Z,764.00
2023-01-27T08:11:32.483Z,760.00
2023-01-27T08:12:32.474Z,752.00
2023-01-27T08:13:32.466Z,752.00
2023-01-27T08:14:32.447Z,740.00
2023-01-27T08:15:32.462Z,796.00
2023-01-27T08:16:32.476Z,772.00
2023-01-27T08:17:32.423Z,824.00
2023-01-27T08:18:32.408Z,804.00
2023-01-27T08:19:32.423Z,860.00
2023-01-27T08:20:32.411Z,892.00
2023-01-27T08:21:32.368Z,868.00
2023-01-27T08:22:32.363Z,728.00
2023-01-27T08:23:31.347Z,596.00
2023-01-27T08:24:32.342Z,488.00
2023-01-27T08:25:32.352Z,464.00
2023-01-27T08:26:32.322Z,504.00
2023-01-27T08:27:32.309Z,568.00
2023-01-27T08:28:32.298Z,632.00
2023-01-27T08:29:32.293Z,656.00
2023-01-27T08:30:32.392Z,736.00
2023-01-27T08:31:32.280Z,760.00
2023-01-27T08:32:32.250Z,700.00
2023-01-27T08:33:32.248Z,608.00
2023-01-27T08:34:32.230Z,560.00
2023-01-27T08:35:32.238Z,664.00
2023-01-27T08:36:32.208Z,820.00
2023-01-27T08:37:32.213Z,864.00
2023-01-27T08:38:32.200Z,808.00
2023-01-27T08:39:32.179Z,800.00
2023-01-27T08:40:32.179Z,760.00
2023-01-27T08:41:32.161Z,744.00
2023-01-27T08:42:32.149Z,932.00
2023-01-27T08:43:32.139Z,940.00
2023-01-27T08:44:32.131Z,892.00
2023-01-27T08:45:32.123Z,820.00
2023-01-27T08:46:32.106Z,760.00
2023-01-27T08:47:32.096Z,764.00
2023-01-27T08:48:32.077Z,780.00
2023-01-27T08:49:32.073Z,864.00
2023-01-27T08:50:32.075Z,808.00
2023-01-27T08:51:32.049Z,696.00
2023-01-27T08:52:32.046Z,640.00
2023-01-27T08:53:32.028Z,568.00
2023-01-27T08:54:32.037Z,568.00
2023-01-27T08:55:32.035Z,532.00
2023-01-27T08:56:31.995Z,572.00
2023-01-27T08:57:31.976Z,620.00
2023-01-27T08:58:33.247Z,704.00
2023-01-27T08:59:31.965Z,860.00
2023-01-27T09:00:31.975Z,852.00
2023-01-27T09:01:32.037Z,764.00
2023-01-27T09:02:31.925Z,904.00
2023-01-27T09:03:31.924Z,812.00
2023-01-27T09:04:31.958Z,560.00
2023-01-27T09:05:31.924Z,472.00
2023-01-27T09:06:31.891Z,676.00
2023-01-27T09:07:31.865Z,972.00
2023-01-27T09:08:31.861Z,1036.00
2023-01-27T09:09:31.861Z,740.00
2023-01-27T09:10:31.860Z,612.00
2023-01-27T09:11:31.827Z,900.00
2023-01-27T09:12:31.819Z,1400.00
2023-01-27T09:13:31.832Z,1600.00
2023-01-27T09:14:31.796Z,1744.00
2023-01-27T09:15:31.827Z,1788.00
2023-01-27T09:16:31.832Z,1864.00
2023-01-27T09:17:31.772Z,2100.00
2023-01-27T09:18:31.761Z,2252.00
2023-01-27T09:19:31.746Z,2536.00
2023-01-27T09:20:31.754Z,2648.00
2023-01-27T09:21:31.734Z,2668.00
2023-01-27T09:22:31.730Z,2996.00
2023-01-27T09:23:31.714Z,3160.00
2023-01-27T09:24:31.694Z,2868.00
2023-01-27T09:25:31.723Z,2328.00
2023-01-27T09:26:31.669Z,2000.00
2023-01-27T09:27:39.087Z,2332.00
2023-01-27T09:28:31.652Z,3352.00
2023-01-27T09:29:31.638Z,4468.00
2023-01-27T09:30:31.649Z,4384.00
2023-01-27T09:31:31.768Z,4052.00
2023-01-27T09:32:31.595Z,4216.00
2023-01-27T09:33:31.592Z,4628.00
2023-01-27T09:34:31.583Z,4364.00
2023-01-27T09:35:31.586Z,3968.00
2023-01-27T09:36:31.560Z,3756.00
2023-01-27T09:37:31.549Z,3788.00
2023-01-27T09:38:31.530Z,4016.00
2023-01-27T09:39:31.548Z,4172.00
2023-01-27T09:40:31.537Z,4064.00
2023-01-27T09:41:31.508Z,4064.00
2023-01-27T09:42:31.501Z,4144.00
2023-01-27T09:43:31.484Z,4456.00
2023-01-27T09:44:31.479Z,4804.00
2023-01-27T09:45:31.484Z,4576.00
2023-01-27T09:46:31.551Z,3876.00
2023-01-27T09:47:31.445Z,3432.00
2023-01-27T09:48:31.427Z,3344.00
2023-01-27T09:49:31.432Z,3192.00
2023-01-27T09:50:31.429Z,2828.00
2023-01-27T09:51:31.406Z,2492.00
2023-01-27T09:52:46.394Z,2208.00
2023-01-27T09:53:31.377Z,1924.00
2023-01-27T09:54:31.371Z,1852.00
2023-01-27T09:55:31.374Z,1732.00
2023-01-27T09:56:31.349Z,1492.00
2023-01-27T09:57:31.355Z,1364.00
2023-01-27T09:58:31.329Z,1228.00
2023-01-27T09:59:31.310Z,1084.00
2023-01-27T10:00:31.311Z,1028.00
2023-01-27T10:01:31.342Z,980.00
2023-01-27T10:02:31.279Z,912.00
2023-01-27T10:03:31.291Z,988.00
2023-01-27T10:04:31.322Z,1144.00
2023-01-27T10:05:31.261Z,1216.00
2023-01-27T10:06:32.665Z,1140.00
2023-01-27T10:07:31.224Z,992.00
2023-01-27T10:08:31.215Z,852.00
2023-01-27T10:09:31.201Z,744.00
2023-01-27T10:10:31.206Z,760.00
2023-01-27T10:11:31.181Z,796.00
2023-01-27T10:12:31.176Z,848.00
2023-01-27T10:13:31.160Z,900.00
2023-01-27T10:14:31.139Z,1020.00
2023-01-27T10:15:31.149Z,1040.00
2023-01-27T10:16:31.237Z,1000.00
2023-01-27T10:17:31.151Z,1248.00
2023-01-27T10:18:31.100Z,1084.00
2023-01-27T10:19:31.093Z,1016.00
2023-01-27T10:20:31.139Z,1208.00
2023-01-27T10:21:31.093Z,1232.00
2023-01-27T10:22:31.078Z,1544.00
2023-01-27T10:23:31.089Z,1828.00
2023-01-27T10:24:31.053Z,1740.00
2023-01-27T10:25:31.039Z,1736.00
2023-01-27T10:26:31.033Z,1916.00
2023-01-27T10:27:31.004Z,1740.00
2023-01-27T10:28:30.993Z,1484.00
2023-01-27T10:29:30.988Z,1388.00
2023-01-27T10:30:30.985Z,1588.00
2023-01-27T10:31:31.008Z,1920.00
2023-01-27T10:32:30.947Z,1420.00
2023-01-27T10:33:30.938Z,1056.00
2023-01-27T10:34:30.928Z,936.00
2023-01-27T10:35:30.928Z,948.00
2023-01-27T10:36:30.923Z,984.00
2023-01-27T10:37:30.900Z,1000.00
2023-01-27T10:38:30.896Z,1120.00
2023-01-27T10:39:30.873Z,1148.00
2023-01-27T10:40:30.861Z,1224.00
2023-01-27T10:41:30.866Z,1316.00
2023-01-27T10:42:30.849Z,1404.00
2023-01-27T10:43:30.843Z,1476.00
2023-01-27T10:44:30.817Z,1700.00
2023-01-27T10:45:30.873Z,1920.00
2023-01-27T10:46:30.847Z,2096.00
2023-01-27T10:47:30.787Z,2352.00
2023-01-27T10:48:30.783Z,2576.00
2023-01-27T10:49:30.769Z,2584.00
2023-01-27T10:50:30.769Z,2604.00
2023-01-27T10:51:30.767Z,2680.00
2023-01-27T10:52:30.741Z,2736.00
2023-01-27T10:53:30.739Z,2848.00
2023-01-27T10:54:31.705Z,2984.00
2023-01-27T10:55:30.705Z,3088.00
2023-01-27T10:56:30.711Z,3128.00
2023-01-27T10:57:30.682Z,3188.00
2023-01-27T10:58:30.672Z,3216.00
2023-01-27T10:59:30.675Z,3136.00
2023-01-27T11:01:30.936Z,3072.00
2023-01-27T11:02:30.624Z,3056.00
2023-01-27T11:03:30.618Z,3104.00
2023-01-27T11:04:30.718Z,3080.00
2023-01-27T11:05:30.587Z,2912.00
2023-01-27T11:06:30.599Z,2800.00
2023-01-27T11:07:31.710Z,2836.00
2023-01-27T11:08:30.565Z,2776.00
2023-01-27T11:09:30.555Z,2692.00
2023-01-27T11:10:30.548Z,2804.00
2023-01-27T11:11:30.549Z,2776.00
2023-01-27T11:12:30.522Z,2800.00
2023-01-27T11:13:30.515Z,2692.00
2023-01-27T11:14:30.499Z,2360.00
2023-01-27T11:15:30.495Z,2232.00
2023-01-27T11:16:30.504Z,2168.00
2023-01-27T11:17:30.473Z,2296.00
2023-01-27T11:18:30.455Z,2776.00
2023-01-27T11:19:30.450Z,2924.00
2023-01-27T11:20:30.451Z,2724.00
2023-01-27T11:21:30.443Z,2708.00
2023-01-27T11:22:30.438Z,2764.00
2023-01-27T11:23:30.398Z,2568.00
2023-01-27T11:24:30.381Z,2416.00
2023-01-27T11:25:30.379Z,1972.00
2023-01-27T11:26:30.378Z,1640.00
2023-01-27T11:27:30.363Z,1744.00
2023-01-27T11:28:30.346Z,1936.00
2023-01-27T11:29:30.345Z,1976.00
2023-01-27T11:30:30.392Z,1760.00
2023-01-27T11:31:30.477Z,1696.00
2023-01-27T11:32:30.299Z,1720.00
2023-01-27T11:33:30.281Z,1640.00
2023-01-27T11:34:30.286Z,1816.00
2023-01-27T11:35:30.263Z,2104.00
2023-01-27T11:36:30.276Z,2308.00
2023-01-27T11:37:30.243Z,2428.00
2023-01-27T11:38:30.234Z,2492.00
2023-01-27T11:39:30.229Z,2536.00
2023-01-27T11:40:30.209Z,2492.00
2023-01-27T11:41:30.214Z,2356.00
2023-01-27T11:42:30.193Z,2132.00
2023-01-27T11:43:30.178Z,2136.00
2023-01-27T11:44:30.179Z,2124.00
2023-01-27T11:45:30.193Z,2048.00
2023-01-27T11:46:30.185Z,2096.00
2023-01-27T11:47:30.143Z,2112.00
2023-01-27T11:48:30.129Z,2132.00
2023-01-27T11:49:30.110Z,1968.00
2023-01-27T11:50:30.129Z,1776.00
2023-01-27T11:51:30.108Z,1832.00
2023-01-27T11:52:30.090Z,1932.00
2023-01-27T11:53:30.076Z,1836.00
2023-01-27T11:54:30.066Z,1848.00
2023-01-27T11:55:30.069Z,1876.00
2023-01-27T11:56:30.055Z,1920.00
2023-01-27T11:57:30.028Z,1952.00
2023-01-27T11:58:30.017Z,1908.00
2023-01-27T11:59:30.009Z,1716.00
2023-01-27T12:00:29.989Z,1492.00
2023-01-27T12:01:30.006Z,1332.00
2023-01-27T12:02:29.969Z,1340.00
2023-01-27T12:03:29.998Z,1356.00
2023-01-27T12:04:30.035Z,1320.00
2023-01-27T12:05:29.944Z,1240.00
2023-01-27T12:06:29.944Z,1144.00
2023-01-27T12:07:29.920Z,1088.00
2023-01-27T12:08:29.916Z,1028.00
2023-01-27T12:09:29.901Z,988.00
2023-01-27T12:10:29.887Z,964.00
2023-01-27T12:11:29.892Z,980.00
2023-01-27T12:12:29.867Z,980.00
2023-01-27T12:13:29.873Z,952.00
2023-01-27T12:14:29.855Z,940.00
2023-01-27T12:15:29.828Z,912.00
2023-01-27T12:16:29.835Z,888.00
2023-01-27T12:17:29.806Z,864.00
2023-01-27T12:18:29.807Z,848.00
2023-01-27T12:19:29.794Z,916.00
2023-01-27T12:20:29.778Z,1004.00
2023-01-27T12:21:29.795Z,1060.00
2023-01-27T12:22:29.759Z,1116.00
2023-01-27T12:23:29.746Z,1092.00
2023-01-27T12:24:29.826Z,972.00
2023-01-27T12:25:29.723Z,916.00
2023-01-27T12:26:29.724Z,920.00
2023-01-27T12:27:29.713Z,924.00
2023-01-27T12:28:29.701Z,948.00
2023-01-27T12:29:29.693Z,968.00
2023-01-27T12:30:29.683Z,944.00
2023-01-27T12:31:29.866Z,972.00
2023-01-27T12:32:29.639Z,980.00
2023-01-27T12:33:29.645Z,1020.00
2023-01-27T12:34:29.627Z,1028.00
2023-01-27T12:35:29.615Z,1016.00
2023-01-27T12:36:30.386Z,984.00
2023-01-27T12:37:29.597Z,972.00
2023-01-27T12:38:29.576Z,988.00
2023-01-27T12:39:29.578Z,1056.00
2023-01-27T12:40:29.566Z,1148.00
2023-01-27T12:41:29.567Z,1184.00
2023-01-27T12:42:29.571Z,1228.00
2023-01-27T12:43:29.530Z,1336.00
2023-01-27T12:44:29.523Z,1484.00
2023-01-27T12:45:29.500Z,1676.00
2023-01-27T12:46:29.542Z,1780.00
2023-01-27T12:47:29.486Z,1808.00
2023-01-27T12:48:29.471Z,1724.00
2023-01-27T12:49:29.462Z,1608.00
2023-01-27T12:50:29.462Z,1600.00